sensor_id;sensor_type;location;lat;lon;timestamp;pressure;altitude;pressure_sealevel;temperature;humidity
46642;BME280;32370;41.864;-88.124;2023-01-26T00:00:32;98045.77;;;-1.45;100.00
46642;BME280;32370;41.864;-88.124;2023-01-26T00:03:00;98049.10;;;-1.92;100.00
46642;BME280;32370;41.864;-88.124;2023-01-26T00:05:36;98055.72;;;-2.02;100.00
46642;BME280;32370;41.864;-88.124;2023-01-26T00:08:05;98056.84;;;-2.02;100.00
46642;BME280;32370;41.864;-88.124;2023-01-26T00:10:34;98058.31;;;-2.12;100.00
46642;BME280;32370;41.864;-88.124;2023-01-26T00:13:03;98060.63;;;-2.06;100.00
46642;BME280;32370;41.864;-88.124;2023-01-26T00:15:32;98061.66;;;-2.21;100.00
46642;BME280;32370;41.864;-88.124;2023-01-26T00:18:01;98066.99;;;-2.11;100.00
46642;BME280;32370;41.864;-88.124;2023-01-26T00:20:30;98071.17;;;-2.05;100.00
46642;BME280;32370;41.864;-88.124;2023-01-26T00:22:57;98077.01;;;-2.04;100.00
46642;BME280;32370;41.864;-88.124;2023-01-26T00:25:25;98079.34;;;-1.83;100.00
46642;BME280;32370;41.864;-88.124;2023-01-26T00:27:53;98082.05;;;-1.42;100.00
46642;BME280;32370;41.864;-88.124;2023-01-26T00:30:21;98086.14;;;-1.59;100.00
46642;BME280;32370;41.864;-88.124;2023-01-26T00:32:49;98087.39;;;-1.94;100.00
46642;BME280;32370;41.864;-88.124;2023-01-26T00:35:17;98090.15;;;-1.36;100.00
46642;BME280;32370;41.864;-88.124;2023-01-26T00:37:45;98093.39;;;-1.62;100.00
46642;BME280;32370;41.864;-88.124;2023-01-26T00:40:13;98092.95;;;-2.30;100.00
46642;BME280;32370;41.864;-88.124;2023-01-26T00:42:41;98096.43;;;-2.06;100.00
46642;BME280;32370;41.864;-88.124;2023-01-26T00:45:09;98096.57;;;-2.14;100.00
46642;BME280;32370;41.864;-88.124;2023-01-26T00:47:37;98100.13;;;-2.19;100.00
46642;BME280;32370;41.864;-88.124;2023-01-26T00:50:05;98100.41;;;-2.18;100.00
46642;BME280;32370;41.864;-88.124;2023-01-26T00:52:34;98096.85;;;-2.46;100.00
46642;BME280;32370;41.864;-88.124;2023-01-26T00:55:02;98099.01;;;-1.92;100.00
46642;BME280;32370;41.864;-88.124;2023-01-26T00:57:30;98102.61;;;-2.36;100.00
46642;BME280;32370;41.864;-88.124;2023-01-26T00:59:58;98104.89;;;-1.65;100.00
46642;BME280;32370;41.864;-88.124;2023-01-26T01:02:26;98109.68;;;-1.74;100.00
46642;BME280;32370;41.864;-88.124;2023-01-26T01:04:54;98110.60;;;-2.12;100.00
46642;BME280;32370;41.864;-88.124;2023-01-26T01:07:22;98108.27;;;-2.05;100.00
46642;BME280;32370;41.864;-88.124;2023-01-26T01:09:50;98109.22;;;-2.08;100.00
46642;BME280;32370;41.864;-88.124;2023-01-26T01:12:17;98110.87;;;-2.34;100.00
46642;BME280;32370;41.864;-88.124;2023-01-26T01:14:45;98111.67;;;-2.34;100.00
46642;BME280;32370;41.864;-88.124;2023-01-26T01:17:13;98112.07;;;-2.19;100.00
46642;BME280;32370;41.864;-88.124;2023-01-26T01:19:43;98111.55;;;-1.60;100.00
46642;BME280;32370;41.864;-88.124;2023-01-26T01:22:11;98111.75;;;-2.40;100.00
46642;BME280;32370;41.864;-88.124;2023-01-26T01:24:39;98114.70;;;-1.91;100.00
46642;BME280;32370;41.864;-88.124;2023-01-26T01:27:07;98112.57;;;-1.75;100.00
46642;BME280;32370;41.864;-88.124;2023-01-26T01:29:36;98105.80;;;-1.93;100.00
46642;BME280;32370;41.864;-88.124;2023-01-26T01:32:04;98104.59;;;-1.90;100.00
46642;BME280;32370;41.864;-88.124;2023-01-26T01:34:32;98103.30;;;-1.89;100.00
46642;BME280;32370;41.864;-88.124;2023-01-26T01:37:00;98102.68;;;-1.95;100.00
46642;BME280;32370;41.864;-88.124;2023-01-26T01:39:28;98104.09;;;-1.49;100.00
46642;BME280;32370;41.864;-88.124;2023-01-26T01:41:56;98106.65;;;-1.61;100.00
46642;BME280;32370;41.864;-88.124;2023-01-26T01:44:25;98111.61;;;-1.73;100.00
46642;BME280;32370;41.864;-88.124;2023-01-26T01:46:55;98110.32;;;-2.09;100.00
46642;BME280;32370;41.864;-88.124;2023-01-26T01:49:27;98112.51;;;-1.53;100.00
46642;BME280;32370;41.864;-88.124;2023-01-26T01:52:00;98112.75;;;-1.48;100.00
46642;BME280;32370;41.864;-88.124;2023-01-26T01:54:33;98116.42;;;-1.93;100.00
46642;BME280;32370;41.864;-88.124;2023-01-26T01:57:06;98113.33;;;-2.20;100.00
46642;BME280;32370;41.864;-88.124;2023-01-26T01:59:34;98120.12;;;-2.15;100.00
46642;BME280;32370;41.864;-88.124;2023-01-26T02:02:02;98116.31;;;-2.13;100.00
46642;BME280;32370;41.864;-88.124;2023-01-26T02:04:30;98115.46;;;-2.12;100.00
46642;BME280;32370;41.864;-88.124;2023-01-26T02:06:58;98119.76;;;-2.21;100.00
46642;BME280;32370;41.864;-88.124;2023-01-26T02:09:31;98124.39;;;-2.41;100.00
46642;BME280;32370;41.864;-88.124;2023-01-26T02:12:01;98122.60;;;-2.20;100.00
46642;BME280;32370;41.864;-88.124;2023-01-26T02:14:32;98125.25;;;-2.25;100.00
46642;BME280;32370;41.864;-88.124;2023-01-26T02:17:01;98130.82;;;-2.24;100.00
46642;BME280;32370;41.864;-88.124;2023-01-26T02:19:35;98135.51;;;-2.55;100.00
46642;BME280;32370;41.864;-88.124;2023-01-26T02:22:11;98136.01;;;-2.24;100.00
46642;BME280;32370;41.864;-88.124;2023-01-26T02:24:43;98139.19;;;-2.19;100.00
46642;BME280;32370;41.864;-88.124;2023-01-26T02:27:10;98141.36;;;-2.34;100.00
46642;BME280;32370;41.864;-88.124;2023-01-26T02:29:38;98143.29;;;-2.33;100.00
46642;BME280;32370;41.864;-88.124;2023-01-26T02:32:06;98148.84;;;-2.37;100.00
46642;BME280;32370;41.864;-88.124;2023-01-26T02:34:34;98150.05;;;-2.27;100.00
46642;BME280;32370;41.864;-88.124;2023-01-26T02:37:02;98154.26;;;-2.44;100.00
46642;BME280;32370;41.864;-88.124;2023-01-26T02:39:42;98159.57;;;-1.97;100.00
46642;BME280;32370;41.864;-88.124;2023-01-26T02:42:11;98156.96;;;-2.49;100.00
46642;BME280;32370;41.864;-88.124;2023-01-26T02:44:41;98161.17;;;-2.28;100.00
46642;BME280;32370;41.864;-88.124;2023-01-26T02:47:11;98159.51;;;-2.30;100.00
46642;BME280;32370;41.864;-88.124;2023-01-26T02:49:39;98161.73;;;-2.24;100.00
46642;BME280;32370;41.864;-88.124;2023-01-26T02:52:08;98163.17;;;-2.26;100.00
46642;BME280;32370;41.864;-88.124;2023-01-26T02:54:36;98162.53;;;-2.12;100.00
46642;BME280;32370;41.864;-88.124;2023-01-26T02:57:04;98164.97;;;-2.28;100.00
46642;BME280;32370;41.864;-88.124;2023-01-26T02:59:32;98161.07;;;-2.50;100.00
46642;BME280;32370;41.864;-88.124;2023-01-26T03:02:00;98158.38;;;-2.43;100.00
46642;BME280;32370;41.864;-88.124;2023-01-26T03:04:28;98154.21;;;-2.42;100.00
46642;BME280;32370;41.864;-88.124;2023-01-26T03:06:56;98155.44;;;-2.20;100.00
46642;BME280;32370;41.864;-88.124;2023-01-26T03:09:24;98156.00;;;-2.12;100.00
46642;BME280;32370;41.864;-88.124;2023-01-26T03:11:52;98158.04;;;-2.56;100.00
46642;BME280;32370;41.864;-88.124;2023-01-26T03:14:20;98162.35;;;-2.60;100.00
46642;BME280;32370;41.864;-88.124;2023-01-26T03:16:48;98159.34;;;-2.08;100.00
46642;BME280;32370;41.864;-88.124;2023-01-26T03:19:16;98159.35;;;-2.60;100.00
46642;BME280;32370;41.864;-88.124;2023-01-26T03:21:44;98160.85;;;-2.37;100.00
46642;BME280;32370;41.864;-88.124;2023-01-26T03:24:14;98162.53;;;-2.57;100.00
46642;BME280;32370;41.864;-88.124;2023-01-26T03:26:42;98160.00;;;-2.59;100.00
46642;BME280;32370;41.864;-88.124;2023-01-26T03:29:10;98159.23;;;-2.53;100.00
46642;BME280;32370;41.864;-88.124;2023-01-26T03:31:38;98161.08;;;-2.44;100.00
46642;BME280;32370;41.864;-88.124;2023-01-26T03:34:05;98164.13;;;-2.21;100.00
46642;BME280;32370;41.864;-88.124;2023-01-26T03:36:33;98164.27;;;-2.17;100.00
46642;BME280;32370;41.864;-88.124;2023-01-26T03:39:01;98162.00;;;-2.51;100.00
46642;BME280;32370;41.864;-88.124;2023-01-26T03:41:29;98165.74;;;-2.29;100.00
46642;BME280;32370;41.864;-88.124;2023-01-26T03:43:57;98165.29;;;-2.33;100.00
46642;BME280;32370;41.864;-88.124;2023-01-26T03:46:25;98168.81;;;-2.57;100.00
46642;BME280;32370;41.864;-88.124;2023-01-26T03:48:53;98172.05;;;-2.37;100.00
46642;BME280;32370;41.864;-88.124;2023-01-26T03:51:21;98171.20;;;-2.38;100.00
46642;BME280;32370;41.864;-88.124;2023-01-26T03:53:49;98172.25;;;-2.68;100.00
46642;BME280;32370;41.864;-88.124;2023-01-26T03:56:17;98169.35;;;-2.65;100.00
46642;BME280;32370;41.864;-88.124;2023-01-26T03:58:46;98173.09;;;-2.51;100.00
46642;BME280;32370;41.864;-88.124;2023-01-26T04:01:14;98175.69;;;-2.67;100.00
46642;BME280;32370;41.864;-88.124;2023-01-26T04:03:42;98177.91;;;-2.86;100.00
46642;BME280;32370;41.864;-88.124;2023-01-26T04:06:10;98180.15;;;-2.65;100.00
46642;BME280;32370;41.864;-88.124;2023-01-26T04:08:38;98183.75;;;-2.69;100.00
46642;BME280;32370;41.864;-88.124;2023-01-26T04:11:06;98184.36;;;-2.53;100.00
46642;BME280;32370;41.864;-88.124;2023-01-26T04:13:34;98181.97;;;-2.64;100.00
46642;BME280;32370;41.864;-88.124;2023-01-26T04:16:02;98187.48;;;-2.72;100.00
46642;BME280;32370;41.864;-88.124;2023-01-26T04:18:30;98186.61;;;-2.96;100.00
46642;BME280;32370;41.864;-88.124;2023-01-26T04:21:00;98189.81;;;-2.60;100.00
46642;BME280;32370;41.864;-88.124;2023-01-26T04:23:29;98191.90;;;-2.59;100.00
46642;BME280;32370;41.864;-88.124;2023-01-26T04:25:58;98194.90;;;-2.81;100.00
46642;BME280;32370;41.864;-88.124;2023-01-26T04:28:25;98200.45;;;-2.68;100.00
46642;BME280;32370;41.864;-88.124;2023-01-26T04:30:53;98199.91;;;-2.76;100.00
46642;BME280;32370;41.864;-88.124;2023-01-26T04:33:21;98204.93;;;-2.69;100.00
46642;BME280;32370;41.864;-88.124;2023-01-26T04:35:49;98203.52;;;-2.24;100.00
46642;BME280;32370;41.864;-88.124;2023-01-26T04:38:17;98206.68;;;-2.71;100.00
46642;BME280;32370;41.864;-88.124;2023-01-26T04:40:52;98210.09;;;-2.72;100.00
46642;BME280;32370;41.864;-88.124;2023-01-26T04:43:20;98212.29;;;-2.50;100.00
46642;BME280;32370;41.864;-88.124;2023-01-26T04:45:57;98212.70;;;-2.74;100.00
46642;BME280;32370;41.864;-88.124;2023-01-26T04:48:25;98212.95;;;-2.83;100.00
46642;BME280;32370;41.864;-88.124;2023-01-26T04:50:54;98213.02;;;-2.37;100.00
46642;BME280;32370;41.864;-88.124;2023-01-26T04:53:22;98214.88;;;-2.61;100.00
46642;BME280;32370;41.864;-88.124;2023-01-26T04:55:50;98219.96;;;-2.98;100.00
46642;BME280;32370;41.864;-88.124;2023-01-26T04:58:18;98220.61;;;-2.89;100.00
46642;BME280;32370;41.864;-88.124;2023-01-26T05:00:50;98222.61;;;-2.56;100.00
46642;BME280;32370;41.864;-88.124;2023-01-26T05:03:18;98223.92;;;-2.68;100.00
46642;BME280;32370;41.864;-88.124;2023-01-26T05:05:49;98225.58;;;-2.74;100.00
46642;BME280;32370;41.864;-88.124;2023-01-26T05:08:18;98227.87;;;-2.91;100.00
46642;BME280;32370;41.864;-88.124;2023-01-26T05:10:46;98229.09;;;-2.76;100.00
46642;BME280;32370;41.864;-88.124;2023-01-26T05:13:14;98229.95;;;-2.76;100.00
46642;BME280;32370;41.864;-88.124;2023-01-26T05:15:42;98229.79;;;-2.75;100.00
46642;BME280;32370;41.864;-88.124;2023-01-26T05:18:10;98236.05;;;-2.81;100.00
46642;BME280;32370;41.864;-88.124;2023-01-26T05:20:38;98238.94;;;-2.81;100.00
46642;BME280;32370;41.864;-88.124;2023-01-26T05:23:06;98238.91;;;-2.78;100.00
46642;BME280;32370;41.864;-88.124;2023-01-26T05:25:34;98239.56;;;-2.77;100.00
46642;BME280;32370;41.864;-88.124;2023-01-26T05:28:04;98236.35;;;-2.70;100.00
46642;BME280;32370;41.864;-88.124;2023-01-26T05:30:32;98236.72;;;-2.78;100.00
46642;BME280;32370;41.864;-88.124;2023-01-26T05:33:01;98237.61;;;-2.81;100.00
46642;BME280;32370;41.864;-88.124;2023-01-26T05:35:29;98237.67;;;-2.80;100.00
46642;BME280;32370;41.864;-88.124;2023-01-26T05:37:57;98234.05;;;-2.84;100.00
46642;BME280;32370;41.864;-88.124;2023-01-26T05:40:25;98234.68;;;-2.86;100.00
46642;BME280;32370;41.864;-88.124;2023-01-26T05:42:53;98234.83;;;-2.87;100.00
46642;BME280;32370;41.864;-88.124;2023-01-26T05:45:21;98236.08;;;-2.85;100.00
46642;BME280;32370;41.864;-88.124;2023-01-26T05:47:49;98238.23;;;-2.83;100.00
46642;BME280;32370;41.864;-88.124;2023-01-26T05:50:17;98237.95;;;-2.58;100.00
46642;BME280;32370;41.864;-88.124;2023-01-26T05:52:45;98238.19;;;-2.82;100.00
46642;BME280;32370;41.864;-88.124;2023-01-26T05:55:13;98241.22;;;-3.06;100.00
46642;BME280;32370;41.864;-88.124;2023-01-26T05:57:42;98239.75;;;-2.80;100.00
46642;BME280;32370;41.864;-88.124;2023-01-26T06:00:12;98238.53;;;-2.78;100.00
46642;BME280;32370;41.864;-88.124;2023-01-26T06:02:41;98238.23;;;-2.62;100.00
46642;BME280;32370;41.864;-88.124;2023-01-26T06:05:09;98236.35;;;-3.01;100.00
46642;BME280;32370;41.864;-88.124;2023-01-26T06:07:37;98235.96;;;-2.67;100.00
46642;BME280;32370;41.864;-88.124;2023-01-26T06:10:06;98234.62;;;-2.97;100.00
46642;BME280;32370;41.864;-88.124;2023-01-26T06:12:34;98230.77;;;-2.96;100.00
46642;BME280;32370;41.864;-88.124;2023-01-26T06:15:02;98226.01;;;-2.96;100.00
46642;BME280;32370;41.864;-88.124;2023-01-26T06:17:30;98225.89;;;-2.83;100.00
46642;BME280;32370;41.864;-88.124;2023-01-26T06:19:58;98224.27;;;-2.78;100.00
46642;BME280;32370;41.864;-88.124;2023-01-26T06:22:26;98221.36;;;-2.81;100.00
46642;BME280;32370;41.864;-88.124;2023-01-26T06:24:54;98224.77;;;-3.27;100.00
46642;BME280;32370;41.864;-88.124;2023-01-26T06:27:22;98226.67;;;-2.85;100.00
46642;BME280;32370;41.864;-88.124;2023-01-26T06:29:52;98224.35;;;-2.88;100.00
46642;BME280;32370;41.864;-88.124;2023-01-26T06:32:21;98227.01;;;-2.83;100.00
46642;BME280;32370;41.864;-88.124;2023-01-26T06:34:48;98227.30;;;-2.87;100.00
46642;BME280;32370;41.864;-88.124;2023-01-26T06:37:16;98230.87;;;-2.95;100.00
46642;BME280;32370;41.864;-88.124;2023-01-26T06:39:45;98229.83;;;-2.91;100.00
46642;BME280;32370;41.864;-88.124;2023-01-26T06:42:13;98231.61;;;-3.10;100.00
46642;BME280;32370;41.864;-88.124;2023-01-26T06:44:40;98235.41;;;-2.89;100.00
46642;BME280;32370;41.864;-88.124;2023-01-26T06:47:09;98234.28;;;-3.05;100.00
46642;BME280;32370;41.864;-88.124;2023-01-26T06:49:36;98238.48;;;-3.23;100.00
46642;BME280;32370;41.864;-88.124;2023-01-26T06:52:18;98239.75;;;-2.81;100.00
46642;BME280;32370;41.864;-88.124;2023-01-26T06:54:49;98238.86;;;-3.00;100.00
46642;BME280;32370;41.864;-88.124;2023-01-26T06:57:17;98241.41;;;-2.96;100.00
46642;BME280;32370;41.864;-88.124;2023-01-26T06:59:45;98246.14;;;-3.06;100.00
46642;BME280;32370;41.864;-88.124;2023-01-26T07:02:17;98246.26;;;-3.10;100.00
46642;BME280;32370;41.864;-88.124;2023-01-26T07:04:45;98249.44;;;-2.98;100.00
46642;BME280;32370;41.864;-88.124;2023-01-26T07:07:45;98252.76;;;-2.48;100.00
46642;BME280;32370;41.864;-88.124;2023-01-26T07:10:12;98247.47;;;-2.97;100.00
46642;BME280;32370;41.864;-88.124;2023-01-26T07:12:42;98248.61;;;-3.02;100.00
46642;BME280;32370;41.864;-88.124;2023-01-26T07:15:11;98253.75;;;-3.06;100.00
46642;BME280;32370;41.864;-88.124;2023-01-26T07:17:39;98250.68;;;-2.96;100.00
46642;BME280;32370;41.864;-88.124;2023-01-26T07:20:08;98256.03;;;-3.09;100.00
46642;BME280;32370;41.864;-88.124;2023-01-26T07:22:36;98257.82;;;-3.12;100.00
46642;BME280;32370;41.864;-88.124;2023-01-26T07:25:04;98259.77;;;-3.15;100.00
46642;BME280;32370;41.864;-88.124;2023-01-26T07:27:32;98260.57;;;-3.02;100.00
46642;BME280;32370;41.864;-88.124;2023-01-26T07:30:02;98265.49;;;-3.08;100.00
46642;BME280;32370;41.864;-88.124;2023-01-26T07:32:30;98266.88;;;-3.12;100.00
46642;BME280;32370;41.864;-88.124;2023-01-26T07:34:57;98270.53;;;-3.32;100.00
46642;BME280;32370;41.864;-88.124;2023-01-26T07:37:27;98274.06;;;-3.16;100.00
46642;BME280;32370;41.864;-88.124;2023-01-26T07:39:55;98276.07;;;-2.84;100.00
46642;BME280;32370;41.864;-88.124;2023-01-26T07:42:23;98276.46;;;-3.26;100.00
46642;BME280;32370;41.864;-88.124;2023-01-26T07:44:51;98277.53;;;-3.06;100.00
46642;BME280;32370;41.864;-88.124;2023-01-26T07:47:19;98283.08;;;-3.01;100.00
46642;BME280;32370;41.864;-88.124;2023-01-26T07:49:47;98283.49;;;-2.97;100.00
46642;BME280;32370;41.864;-88.124;2023-01-26T07:52:15;98289.35;;;-3.06;100.00
46642;BME280;32370;41.864;-88.124;2023-01-26T07:54:43;98289.50;;;-3.14;100.00
46642;BME280;32370;41.864;-88.124;2023-01-26T07:57:11;98293.10;;;-3.17;100.00
46642;BME280;32370;41.864;-88.124;2023-01-26T07:59:39;98294.51;;;-2.82;100.00
46642;BME280;32370;41.864;-88.124;2023-01-26T08:02:09;98298.16;;;-2.87;100.00
46642;BME280;32370;41.864;-88.124;2023-01-26T08:04:37;98304.93;;;-2.97;100.00
46642;BME280;32370;41.864;-88.124;2023-01-26T08:07:05;98307.43;;;-3.27;100.00
46642;BME280;32370;41.864;-88.124;2023-01-26T08:09:33;98308.78;;;-3.05;100.00
46642;BME280;32370;41.864;-88.124;2023-01-26T08:12:01;98308.89;;;-2.83;100.00
46642;BME280;32370;41.864;-88.124;2023-01-26T08:14:29;98309.38;;;-3.24;100.00
46642;BME280;32370;41.864;-88.124;2023-01-26T08:16:57;98311.31;;;-2.95;100.00
46642;BME280;32370;41.864;-88.124;2023-01-26T08:19:25;98307.89;;;-3.07;100.00
46642;BME280;32370;41.864;-88.124;2023-01-26T08:21:53;98307.93;;;-3.05;100.00
46642;BME280;32370;41.864;-88.124;2023-01-26T08:24:21;98304.59;;;-3.05;100.00
46642;BME280;32370;41.864;-88.124;2023-01-26T08:26:49;98305.11;;;-2.87;100.00
46642;BME280;32370;41.864;-88.124;2023-01-26T08:29:18;98311.77;;;-3.10;100.00
46642;BME280;32370;41.864;-88.124;2023-01-26T08:31:48;98308.15;;;-3.48;100.00
46642;BME280;32370;41.864;-88.124;2023-01-26T08:34:16;98309.21;;;-3.05;100.00
46642;BME280;32370;41.864;-88.124;2023-01-26T08:36:44;98313.53;;;-3.17;100.00
46642;BME280;32370;41.864;-88.124;2023-01-26T08:39:12;98317.28;;;-2.93;100.00
46642;BME280;32370;41.864;-88.124;2023-01-26T08:41:40;98314.29;;;-3.18;100.00
46642;BME280;32370;41.864;-88.124;2023-01-26T08:44:09;98315.82;;;-3.09;100.00
46642;BME280;32370;41.864;-88.124;2023-01-26T08:46:37;98312.98;;;-3.37;100.00
46642;BME280;32370;41.864;-88.124;2023-01-26T08:49:05;98313.61;;;-2.87;100.00
46642;BME280;32370;41.864;-88.124;2023-01-26T08:51:33;98312.60;;;-3.60;100.00
46642;BME280;32370;41.864;-88.124;2023-01-26T08:54:01;98312.56;;;-3.14;100.00
46642;BME280;32370;41.864;-88.124;2023-01-26T08:56:31;98315.72;;;-2.86;100.00
46642;BME280;32370;41.864;-88.124;2023-01-26T08:58:59;98313.80;;;-3.13;100.00
46642;BME280;32370;41.864;-88.124;2023-01-26T09:01:28;98321.82;;;-3.24;100.00
46642;BME280;32370;41.864;-88.124;2023-01-26T09:03:55;98322.24;;;-3.02;100.00
46642;BME280;32370;41.864;-88.124;2023-01-26T09:06:23;98325.56;;;-2.86;100.00
46642;BME280;32370;41.864;-88.124;2023-01-26T09:08:51;98327.20;;;-3.31;100.00
46642;BME280;32370;41.864;-88.124;2023-01-26T09:11:19;98326.95;;;-3.07;100.00
46642;BME280;32370;41.864;-88.124;2023-01-26T09:13:49;98330.23;;;-3.22;100.00
46642;BME280;32370;41.864;-88.124;2023-01-26T09:16:19;98335.34;;;-3.05;100.00
46642;BME280;32370;41.864;-88.124;2023-01-26T09:18:49;98334.44;;;-3.39;100.00
46642;BME280;32370;41.864;-88.124;2023-01-26T09:21:17;98334.92;;;-3.40;100.00
46642;BME280;32370;41.864;-88.124;2023-01-26T09:23:45;98333.58;;;-3.29;100.00
46642;BME280;32370;41.864;-88.124;2023-01-26T09:26:13;98337.77;;;-3.32;100.00
46642;BME280;32370;41.864;-88.124;2023-01-26T09:28:41;98333.98;;;-3.31;100.00
46642;BME280;32370;41.864;-88.124;2023-01-26T09:31:11;98338.33;;;-3.29;100.00
46642;BME280;32370;41.864;-88.124;2023-01-26T09:33:39;98337.13;;;-3.25;100.00
46642;BME280;32370;41.864;-88.124;2023-01-26T09:36:09;98342.06;;;-3.08;100.00
46642;BME280;32370;41.864;-88.124;2023-01-26T09:38:37;98339.32;;;-3.32;100.00
46642;BME280;32370;41.864;-88.124;2023-01-26T09:41:09;98341.97;;;-3.28;100.00
46642;BME280;32370;41.864;-88.124;2023-01-26T09:43:48;98342.79;;;-3.32;100.00
46642;BME280;32370;41.864;-88.124;2023-01-26T09:46:22;98341.19;;;-3.37;100.00
46642;BME280;32370;41.864;-88.124;2023-01-26T09:48:59;98345.56;;;-3.10;100.00
46642;BME280;32370;41.864;-88.124;2023-01-26T09:51:34;98347.89;;;-2.79;100.00
46642;BME280;32370;41.864;-88.124;2023-01-26T09:54:13;98352.92;;;-3.23;100.00
46642;BME280;32370;41.864;-88.124;2023-01-26T09:56:45;98358.51;;;-3.31;100.00
46642;BME280;32370;41.864;-88.124;2023-01-26T09:59:21;98360.13;;;-3.07;100.00
46642;BME280;32370;41.864;-88.124;2023-01-26T10:02:00;98360.35;;;-2.87;100.00
46642;BME280;32370;41.864;-88.124;2023-01-26T10:04:35;98361.07;;;-3.21;100.00
46642;BME280;32370;41.864;-88.124;2023-01-26T10:07:07;98356.55;;;-2.06;100.00
46642;BME280;32370;41.864;-88.124;2023-01-26T10:09:37;98356.50;;;-2.83;100.00
46642;BME280;32370;41.864;-88.124;2023-01-26T10:12:10;98360.31;;;-2.82;100.00
46642;BME280;32370;41.864;-88.124;2023-01-26T10:14:45;98361.61;;;-2.20;100.00
46642;BME280;32370;41.864;-88.124;2023-01-26T10:17:19;98360.53;;;-1.88;100.00
46642;BME280;32370;41.864;-88.124;2023-01-26T10:19:56;98361.55;;;-1.58;100.00
46642;BME280;32370;41.864;-88.124;2023-01-26T10:22:39;98359.66;;;-1.90;100.00
46642;BME280;32370;41.864;-88.124;2023-01-26T10:25:15;98363.64;;;-2.55;100.00
46642;BME280;32370;41.864;-88.124;2023-01-26T10:27:43;98359.98;;;-2.07;100.00
46642;BME280;32370;41.864;-88.124;2023-01-26T10:30:13;98361.13;;;-2.51;100.00
46642;BME280;32370;41.864;-88.124;2023-01-26T10:32:42;98364.66;;;-2.39;100.00
46642;BME280;32370;41.864;-88.124;2023-01-26T10:35:17;98359.63;;;-2.11;100.00
46642;BME280;32370;41.864;-88.124;2023-01-26T10:37:45;98355.99;;;-3.28;100.00
46642;BME280;32370;41.864;-88.124;2023-01-26T10:40:14;98359.17;;;-3.02;100.00
46642;BME280;32370;41.864;-88.124;2023-01-26T10:42:54;98359.56;;;-2.53;100.00
46642;BME280;32370;41.864;-88.124;2023-01-26T10:45:27;98365.33;;;-2.16;100.00
46642;BME280;32370;41.864;-88.124;2023-01-26T10:48:08;98366.69;;;-2.85;100.00
46642;BME280;32370;41.864;-88.124;2023-01-26T10:50:41;98369.32;;;-2.20;100.00
46642;BME280;32370;41.864;-88.124;2023-01-26T10:53:14;98371.59;;;-2.55;100.00
46642;BME280;32370;41.864;-88.124;2023-01-26T10:55:43;98370.48;;;-2.68;100.00
46642;BME280;32370;41.864;-88.124;2023-01-26T10:59:02;98380.29;;;-1.73;100.00
46642;BME280;32370;41.864;-88.124;2023-01-26T11:01:51;98383.17;;;-2.30;100.00
46642;BME280;32370;41.864;-88.124;2023-01-26T11:04:25;98393.31;;;-2.39;100.00
46642;BME280;32370;41.864;-88.124;2023-01-26T11:06:54;98397.89;;;-2.69;100.00
46642;BME280;32370;41.864;-88.124;2023-01-26T11:09:25;98400.62;;;-3.43;100.00
46642;BME280;32370;41.864;-88.124;2023-01-26T11:11:56;98404.82;;;-3.12;100.00
46642;BME280;32370;41.864;-88.124;2023-01-26T11:14:24;98407.86;;;-3.55;100.00
46642;BME280;32370;41.864;-88.124;2023-01-26T11:16:59;98407.79;;;-4.45;100.00
46642;BME280;32370;41.864;-88.124;2023-01-26T11:19:44;98404.79;;;-4.51;100.00
46642;BME280;32370;41.864;-88.124;2023-01-26T11:22:19;98404.65;;;-4.44;100.00
46642;BME280;32370;41.864;-88.124;2023-01-26T11:25:01;98406.11;;;-4.18;100.00
46642;BME280;32370;41.864;-88.124;2023-01-26T11:27:39;98413.96;;;-3.86;100.00
46642;BME280;32370;41.864;-88.124;2023-01-26T11:30:49;98411.65;;;-4.62;100.00
46642;BME280;32370;41.864;-88.124;2023-01-26T11:33:29;98414.91;;;-5.05;100.00
46642;BME280;32370;41.864;-88.124;2023-01-26T11:36:08;98413.79;;;-4.64;100.00
46642;BME280;32370;41.864;-88.124;2023-01-26T11:38:40;98417.38;;;-5.03;100.00
46642;BME280;32370;41.864;-88.124;2023-01-26T11:41:22;98419.87;;;-4.83;100.00
46642;BME280;32370;41.864;-88.124;2023-01-26T11:44:08;98424.95;;;-3.87;100.00
46642;BME280;32370;41.864;-88.124;2023-01-26T11:46:52;98427.14;;;-4.92;100.00
46642;BME280;32370;41.864;-88.124;2023-01-26T11:49:34;98427.27;;;-4.54;100.00
46642;BME280;32370;41.864;-88.124;2023-01-26T11:52:10;98430.05;;;-4.76;100.00
46642;BME280;32370;41.864;-88.124;2023-01-26T11:54:53;98438.33;;;-4.99;100.00
46642;BME280;32370;41.864;-88.124;2023-01-26T11:57:27;98439.48;;;-5.08;100.00
46642;BME280;32370;41.864;-88.124;2023-01-26T12:00:02;98443.24;;;-4.78;100.00
46642;BME280;32370;41.864;-88.124;2023-01-26T12:02:34;98452.21;;;-4.87;100.00
46642;BME280;32370;41.864;-88.124;2023-01-26T12:05:12;98451.99;;;-4.77;100.00
46642;BME280;32370;41.864;-88.124;2023-01-26T12:07:47;98455.35;;;-4.74;100.00
46642;BME280;32370;41.864;-88.124;2023-01-26T12:10:22;98462.09;;;-5.28;100.00
46642;BME280;32370;41.864;-88.124;2023-01-26T12:12:54;98462.55;;;-5.11;100.00
46642;BME280;32370;41.864;-88.124;2023-01-26T12:15:29;98463.58;;;-5.30;100.00
46642;BME280;32370;41.864;-88.124;2023-01-26T12:18:04;98470.38;;;-5.28;100.00
46642;BME280;32370;41.864;-88.124;2023-01-26T12:20:38;98476.23;;;-4.92;100.00
46642;BME280;32370;41.864;-88.124;2023-01-26T12:23:14;98480.90;;;-5.85;100.00
46642;BME280;32370;41.864;-88.124;2023-01-26T12:25:46;98479.76;;;-5.52;100.00
46642;BME280;32370;41.864;-88.124;2023-01-26T12:28:20;98481.15;;;-5.37;100.00
46642;BME280;32370;41.864;-88.124;2023-01-26T12:30:56;98487.25;;;-6.12;100.00
46642;BME280;32370;41.864;-88.124;2023-01-26T12:33:28;98488.96;;;-6.19;100.00
46642;BME280;32370;41.864;-88.124;2023-01-26T12:36:18;98492.56;;;-6.20;100.00
46642;BME280;32370;41.864;-88.124;2023-01-26T12:39:14;98495.92;;;-5.44;100.00
46642;BME280;32370;41.864;-88.124;2023-01-26T12:42:01;98497.81;;;-5.52;100.00
46642;BME280;32370;41.864;-88.124;2023-01-26T12:44:36;98503.35;;;-5.71;100.00
46642;BME280;32370;41.864;-88.124;2023-01-26T12:47:10;98513.89;;;-6.12;100.00